sensor_id;sensor_type;location;lat;lon;timestamp;P1;durP1;ratioP1;P2;durP2;ratioP2
63217;SDS011;49314;48.278;16.378;2024-03-22T00:01:46;49.42;;;33.28;;
63217;SDS011;49314;48.278;16.378;2024-03-22T00:04:12;19.23;;;14.45;;
63217;SDS011;49314;48.278;16.378;2024-03-22T00:06:37;15.20;;;13.73;;
63217;SDS011;49314;48.278;16.378;2024-03-22T00:09:02;14.80;;;13.35;;
63217;SDS011;49314;48.278;16.378;2024-03-22T00:11:27;11.63;;;10.63;;
63217;SDS011;49314;48.278;16.378;2024-03-22T00:13:53;11.93;;;10.85;;
63217;SDS011;49314;48.278;16.378;2024-03-22T00:16:18;12.65;;;11.55;;
63217;SDS011;49314;48.278;16.378;2024-03-22T00:18:43;13.10;;;11.80;;
63217;SDS011;49314;48.278;16.378;2024-03-22T00:21:09;13.23;;;12.20;;
63217;SDS011;49314;48.278;16.378;2024-03-22T00:23:34;14.48;;;13.23;;
63217;SDS011;49314;48.278;16.378;2024-03-22T00:25:59;11.48;;;10.27;;
63217;SDS011;49314;48.278;16.378;2024-03-22T00:28:24;15.07;;;13.85;;
63217;SDS011;49314;48.278;16.378;2024-03-22T00:30:50;10.18;;;9.25;;
63217;SDS011;49314;48.278;16.378;2024-03-22T00:33:15;14.70;;;13.48;;
63217;SDS011;49314;48.278;16.378;2024-03-22T00:35:40;14.35;;;13.13;;
63217;SDS011;49314;48.278;16.378;2024-03-22T00:38:05;13.45;;;12.13;;
63217;SDS011;49314;48.278;16.378;2024-03-22T00:40:31;12.43;;;11.25;;
63217;SDS011;49314;48.278;16.378;2024-03-22T00:42:56;11.55;;;10.35;;
63217;SDS011;49314;48.278;16.378;2024-03-22T00:45:21;14.13;;;12.73;;
63217;SDS011;49314;48.278;16.378;2024-03-22T00:47:47;14.52;;;13.23;;
63217;SDS011;49314;48.278;16.378;2024-03-22T00:50:12;14.35;;;13.05;;
63217;SDS011;49314;48.278;16.378;2024-03-22T00:52:37;29.38;;;23.70;;
63217;SDS011;49314;48.278;16.378;2024-03-22T00:55:03;13.30;;;12.13;;
63217;SDS011;49314;48.278;16.378;2024-03-22T00:57:28;15.02;;;13.68;;
63217;SDS011;49314;48.278;16.378;2024-03-22T00:59:53;12.50;;;11.23;;
63217;SDS011;49314;48.278;16.378;2024-03-22T01:02:19;16.98;;;15.15;;
63217;SDS011;49314;48.278;16.378;2024-03-22T01:04:44;15.48;;;13.90;;
63217;SDS011;49314;48.278;16.378;2024-03-22T01:07:09;14.57;;;13.15;;
63217;SDS011;49314;48.278;16.378;2024-03-22T01:09:34;14.68;;;13.27;;
63217;SDS011;49314;48.278;16.378;2024-03-22T01:12:00;16.30;;;14.95;;
63217;SDS011;49314;48.278;16.378;2024-03-22T01:14:25;18.40;;;16.30;;
63217;SDS011;49314;48.278;16.378;2024-03-22T01:16:51;16.15;;;14.45;;
63217;SDS011;49314;48.278;16.378;2024-03-22T01:19:16;16.67;;;15.05;;
63217;SDS011;49314;48.278;16.378;2024-03-22T01:21:41;13.40;;;12.07;;
63217;SDS011;49314;48.278;16.378;2024-03-22T01:24:07;16.75;;;15.18;;
63217;SDS011;49314;48.278;16.378;2024-03-22T01:26:32;15.23;;;13.15;;
63217;SDS011;49314;48.278;16.378;2024-03-22T01:28:57;23.67;;;17.23;;
63217;SDS011;49314;48.278;16.378;2024-03-22T01:31:22;16.08;;;14.70;;
63217;SDS011;49314;48.278;16.378;2024-03-22T01:33:48;14.63;;;13.10;;
63217;SDS011;49314;48.278;16.378;2024-03-22T01:36:13;19.45;;;16.00;;
63217;SDS011;49314;48.278;16.378;2024-03-22T01:38:38;15.98;;;14.55;;
63217;SDS011;49314;48.278;16.378;2024-03-22T01:41:04;17.83;;;16.13;;
63217;SDS011;49314;48.278;16.378;2024-03-22T01:43:29;16.65;;;15.25;;
63217;SDS011;49314;48.278;16.378;2024-03-22T01:45:54;16.20;;;14.77;;
63217;SDS011;49314;48.278;16.378;2024-03-22T01:48:19;20.02;;;15.80;;
63217;SDS011;49314;48.278;16.378;2024-03-22T01:50:45;16.92;;;15.18;;
63217;SDS011;49314;48.278;16.378;2024-03-22T01:53:10;30.45;;;23.88;;
63217;SDS011;49314;48.278;16.378;2024-03-22T01:55:36;22.83;;;20.38;;
63217;SDS011;49314;48.278;16.378;2024-03-22T01:58:01;17.70;;;16.00;;
63217;SDS011;49314;48.278;16.378;2024-03-22T02:00:28;37.60;;;27.02;;
63217;SDS011;49314;48.278;16.378;2024-03-22T02:02:53;18.80;;;15.63;;
63217;SDS011;49314;48.278;16.378;2024-03-22T02:05:18;16.33;;;14.73;;
63217;SDS011;49314;48.278;16.378;2024-03-22T02:07:45;16.10;;;14.65;;
63217;SDS011;49314;48.278;16.378;2024-03-22T02:10:10;16.33;;;14.68;;
63217;SDS011;49314;48.278;16.378;2024-03-22T02:12:40;29.42;;;20.63;;
63217;SDS011;49314;48.278;16.378;2024-03-22T02:15:05;28.00;;;20.88;;
63217;SDS011;49314;48.278;16.378;2024-03-22T02:17:32;21.60;;;18.38;;
63217;SDS011;49314;48.278;16.378;2024-03-22T02:19:57;19.42;;;17.52;;
63217;SDS011;49314;48.278;16.378;2024-03-22T02:22:22;17.98;;;16.33;;
63217;SDS011;49314;48.278;16.378;2024-03-22T02:24:47;13.93;;;12.68;;
63217;SDS011;49314;48.278;16.378;2024-03-22T02:27:13;12.73;;;11.57;;
63217;SDS011;49314;48.278;16.378;2024-03-22T02:29:38;14.65;;;13.27;;
63217;SDS011;49314;48.278;16.378;2024-03-22T02:32:03;18.65;;;17.08;;
63217;SDS011;49314;48.278;16.378;2024-03-22T02:34:29;18.02;;;16.40;;
63217;SDS011;49314;48.278;16.378;2024-03-22T02:36:54;16.63;;;15.20;;
63217;SDS011;49314;48.278;16.378;2024-03-22T02:39:19;16.40;;;15.00;;
63217;SDS011;49314;48.278;16.378;2024-03-22T02:41:44;19.42;;;17.83;;
63217;SDS011;49314;48.278;16.378;2024-03-22T02:44:10;18.30;;;16.70;;
63217;SDS011;49314;48.278;16.378;2024-03-22T02:46:35;16.23;;;14.68;;
63217;SDS011;49314;48.278;16.378;2024-03-22T02:49:00;14.27;;;12.73;;
63217;SDS011;49314;48.278;16.378;2024-03-22T02:51:25;18.08;;;16.55;;
63217;SDS011;49314;48.278;16.378;2024-03-22T02:53:51;17.58;;;15.98;;
63217;SDS011;49314;48.278;16.378;2024-03-22T02:56:16;21.52;;;19.15;;
63217;SDS011;49314;48.278;16.378;2024-03-22T02:58:41;27.88;;;19.13;;
63217;SDS011;49314;48.278;16.378;2024-03-22T03:01:06;27.40;;;21.67;;
63217;SDS011;49314;48.278;16.378;2024-03-22T03:03:32;19.02;;;13.13;;
63217;SDS011;49314;48.278;16.378;2024-03-22T03:05:57;18.83;;;16.92;;
63217;SDS011;49314;48.278;16.378;2024-03-22T03:08:22;32.13;;;25.20;;
63217;SDS011;49314;48.278;16.378;2024-03-22T03:10:48;19.75;;;17.75;;
63217;SDS011;49314;48.278;16.378;2024-03-22T03:13:13;18.02;;;16.23;;
63217;SDS011;49314;48.278;16.378;2024-03-22T03:15:38;17.33;;;15.60;;
63217;SDS011;49314;48.278;16.378;2024-03-22T03:18:04;36.97;;;25.83;;
63217;SDS011;49314;48.278;16.378;2024-03-22T03:20:29;22.42;;;19.00;;
63217;SDS011;49314;48.278;16.378;2024-03-22T03:22:54;21.70;;;18.30;;
63217;SDS011;49314;48.278;16.378;2024-03-22T03:25:20;21.45;;;19.30;;
63217;SDS011;49314;48.278;16.378;2024-03-22T03:27:45;27.30;;;22.38;;
63217;SDS011;49314;48.278;16.378;2024-03-22T03:30:11;31.80;;;23.10;;
63217;SDS011;49314;48.278;16.378;2024-03-22T03:32:36;20.85;;;18.45;;
63217;SDS011;49314;48.278;16.378;2024-03-22T03:35:01;22.60;;;19.35;;
63217;SDS011;49314;48.278;16.378;2024-03-22T03:37:26;20.15;;;18.25;;
63217;SDS011;49314;48.278;16.378;2024-03-22T03:39:52;19.77;;;17.88;;
63217;SDS011;49314;48.278;16.378;2024-03-22T03:42:17;20.48;;;18.48;;
63217;SDS011;49314;48.278;16.378;2024-03-22T03:44:42;18.85;;;17.13;;
63217;SDS011;49314;48.278;16.378;2024-03-22T03:47:07;21.65;;;18.95;;
63217;SDS011;49314;48.278;16.378;2024-03-22T03:49:33;20.38;;;18.27;;
63217;SDS011;49314;48.278;16.378;2024-03-22T03:51:58;20.98;;;19.08;;
63217;SDS011;49314;48.278;16.378;2024-03-22T03:54:23;19.20;;;17.45;;
63217;SDS011;49314;48.278;16.378;2024-03-22T03:56:49;20.77;;;18.67;;
63217;SDS011;49314;48.278;16.378;2024-03-22T03:59:14;20.15;;;18.45;;
63217;SDS011;49314;48.278;16.378;2024-03-22T04:01:39;28.90;;;21.20;;
63217;SDS011;49314;48.278;16.378;2024-03-22T04:04:04;21.52;;;19.63;;
63217;SDS011;49314;48.278;16.378;2024-03-22T04:06:30;18.73;;;17.02;;
63217;SDS011;49314;48.278;16.378;2024-03-22T04:08:55;21.45;;;19.45;;
63217;SDS011;49314;48.278;16.378;2024-03-22T04:11:20;20.83;;;18.83;;
63217;SDS011;49314;48.278;16.378;2024-03-22T04:13:45;19.75;;;18.05;;
63217;SDS011;49314;48.278;16.378;2024-03-22T04:16:12;20.48;;;18.73;;
63217;SDS011;49314;48.278;16.378;2024-03-22T04:18:37;19.33;;;17.50;;
63217;SDS011;49314;48.278;16.378;2024-03-22T04:21:03;18.08;;;16.38;;
63217;SDS011;49314;48.278;16.378;2024-03-22T04:23:28;18.50;;;16.85;;
63217;SDS011;49314;48.278;16.378;2024-03-22T04:28:22;20.45;;;18.58;;
63217;SDS011;49314;48.278;16.378;2024-03-22T04:31:21;19.17;;;17.45;;
63217;SDS011;49314;48.278;16.378;2024-03-22T04:33:39;19.67;;;17.88;;
63217;SDS011;49314;48.278;16.378;2024-03-22T04:36:04;20.65;;;18.58;;
63217;SDS011;49314;48.278;16.378;2024-03-22T04:38:30;28.30;;;25.33;;
63217;SDS011;49314;48.278;16.378;2024-03-22T04:40:56;29.52;;;25.65;;
63217;SDS011;49314;48.278;16.378;2024-03-22T04:43:22;26.38;;;23.48;;
63217;SDS011;49314;48.278;16.378;2024-03-22T04:45:47;19.45;;;17.65;;
63217;SDS011;49314;48.278;16.378;2024-03-22T04:48:15;21.98;;;19.90;;
63217;SDS011;49314;48.278;16.378;2024-03-22T04:50:40;31.85;;;23.15;;
63217;SDS011;49314;48.278;16.378;2024-03-22T04:53:05;23.98;;;21.13;;
63217;SDS011;49314;48.278;16.378;2024-03-22T04:55:31;22.60;;;20.17;;
63217;SDS011;49314;48.278;16.378;2024-03-22T04:57:58;86.45;;;54.15;;
63217;SDS011;49314;48.278;16.378;2024-03-22T05:00:23;37.50;;;29.60;;
63217;SDS011;49314;48.278;16.378;2024-03-22T05:02:50;23.55;;;21.25;;
63217;SDS011;49314;48.278;16.378;2024-03-22T05:05:15;46.20;;;35.15;;
63217;SDS011;49314;48.278;16.378;2024-03-22T05:07:40;41.42;;;32.75;;
63217;SDS011;49314;48.278;16.378;2024-03-22T05:10:06;27.52;;;23.38;;
63217;SDS011;49314;48.278;16.378;2024-03-22T05:12:31;30.83;;;24.52;;
63217;SDS011;49314;48.278;16.378;2024-03-22T05:14:56;24.85;;;22.40;;
63217;SDS011;49314;48.278;16.378;2024-03-22T05:17:21;22.17;;;19.92;;
63217;SDS011;49314;48.278;16.378;2024-03-22T05:19:47;22.80;;;20.48;;
63217;SDS011;49314;48.278;16.378;2024-03-22T05:22:12;21.92;;;19.92;;
63217;SDS011;49314;48.278;16.378;2024-03-22T05:24:37;24.30;;;21.80;;
63217;SDS011;49314;48.278;16.378;2024-03-22T05:27:03;32.92;;;23.52;;
63217;SDS011;49314;48.278;16.378;2024-03-22T05:29:28;36.70;;;25.48;;
63217;SDS011;49314;48.278;16.378;2024-03-22T05:31:53;38.28;;;25.88;;
63217;SDS011;49314;48.278;16.378;2024-03-22T05:34:18;29.92;;;24.40;;
63217;SDS011;49314;48.278;16.378;2024-03-22T05:36:45;25.92;;;23.20;;
63217;SDS011;49314;48.278;16.378;2024-03-22T05:39:10;23.90;;;21.45;;
63217;SDS011;49314;48.278;16.378;2024-03-22T05:41:36;21.42;;;19.40;;
63217;SDS011;49314;48.278;16.378;2024-03-22T05:44:01;18.27;;;16.48;;
63217;SDS011;49314;48.278;16.378;2024-03-22T05:46:26;19.38;;;17.67;;
63217;SDS011;49314;48.278;16.378;2024-03-22T05:48:52;19.30;;;17.30;;
63217;SDS011;49314;48.278;16.378;2024-03-22T05:51:17;19.73;;;17.90;;
63217;SDS011;49314;48.278;16.378;2024-03-22T05:53:42;22.40;;;20.30;;
63217;SDS011;49314;48.278;16.378;2024-03-22T05:56:08;20.83;;;18.77;;
63217;SDS011;49314;48.278;16.378;2024-03-22T05:58:33;19.58;;;17.85;;
63217;SDS011;49314;48.278;16.378;2024-03-22T06:00:58;20.63;;;18.63;;
63217;SDS011;49314;48.278;16.378;2024-03-22T06:03:23;17.10;;;15.40;;
63217;SDS011;49314;48.278;16.378;2024-03-22T06:05:49;17.42;;;15.77;;
63217;SDS011;49314;48.278;16.378;2024-03-22T06:08:14;19.20;;;17.23;;
63217;SDS011;49314;48.278;16.378;2024-03-22T06:10:44;15.98;;;14.30;;
63217;SDS011;49314;48.278;16.378;2024-03-22T06:13:09;15.82;;;14.23;;
63217;SDS011;49314;48.278;16.378;2024-03-22T06:15:35;16.80;;;15.20;;
63217;SDS011;49314;48.278;16.378;2024-03-22T06:18:00;16.80;;;15.20;;
63217;SDS011;49314;48.278;16.378;2024-03-22T06:20:25;16.40;;;14.80;;
63217;SDS011;49314;48.278;16.378;2024-03-22T06:22:50;16.95;;;15.45;;
63217;SDS011;49314;48.278;16.378;2024-03-22T06:25:16;16.45;;;14.82;;
63217;SDS011;49314;48.278;16.378;2024-03-22T06:27:41;26.40;;;23.13;;
63217;SDS011;49314;48.278;16.378;2024-03-22T06:30:06;18.67;;;16.90;;
63217;SDS011;49314;48.278;16.378;2024-03-22T06:32:32;18.13;;;16.27;;
63217;SDS011;49314;48.278;16.378;2024-03-22T06:34:57;18.80;;;16.85;;
63217;SDS011;49314;48.278;16.378;2024-03-22T06:37:22;18.17;;;15.23;;
63217;SDS011;49314;48.278;16.378;2024-03-22T06:39:47;19.08;;;17.38;;
63217;SDS011;49314;48.278;16.378;2024-03-22T06:42:13;18.73;;;16.83;;
63217;SDS011;49314;48.278;16.378;2024-03-22T06:44:38;19.13;;;17.20;;
63217;SDS011;49314;48.278;16.378;2024-03-22T06:47:03;19.60;;;17.80;;
63217;SDS011;49314;48.278;16.378;2024-03-22T06:49:29;26.75;;;20.15;;
63217;SDS011;49314;48.278;16.378;2024-03-22T06:51:54;20.88;;;18.65;;
63217;SDS011;49314;48.278;16.378;2024-03-22T06:54:19;21.17;;;18.73;;
63217;SDS011;49314;48.278;16.378;2024-03-22T06:56:44;20.00;;;18.10;;
63217;SDS011;49314;48.278;16.378;2024-03-22T06:59:10;21.60;;;19.48;;
63217;SDS011;49314;48.278;16.378;2024-03-22T07:01:35;18.90;;;16.98;;
63217;SDS011;49314;48.278;16.378;2024-03-22T07:04:00;21.52;;;19.33;;
63217;SDS011;49314;48.278;16.378;2024-03-22T07:06:25;22.63;;;20.42;;
63217;SDS011;49314;48.278;16.378;2024-03-22T07:08:51;21.63;;;19.55;;
63217;SDS011;49314;48.278;16.378;2024-03-22T07:11:16;19.58;;;17.52;;
63217;SDS011;49314;48.278;16.378;2024-03-22T07:13:41;20.95;;;19.02;;
63217;SDS011;49314;48.278;16.378;2024-03-22T07:16:07;22.52;;;20.58;;
63217;SDS011;49314;48.278;16.378;2024-03-22T07:18:32;19.88;;;17.95;;
63217;SDS011;49314;48.278;16.378;2024-03-22T07:20:57;21.40;;;19.20;;
63217;SDS011;49314;48.278;16.378;2024-03-22T07:23:27;20.92;;;18.80;;
63217;SDS011;49314;48.278;16.378;2024-03-22T07:25:52;20.45;;;18.33;;
63217;SDS011;49314;48.278;16.378;2024-03-22T07:28:17;21.52;;;19.42;;
63217;SDS011;49314;48.278;16.378;2024-03-22T07:30:43;21.52;;;19.45;;
63217;SDS011;49314;48.278;16.378;2024-03-22T07:33:09;20.98;;;18.77;;
63217;SDS011;49314;48.278;16.378;2024-03-22T07:35:35;21.55;;;19.38;;
63217;SDS011;49314;48.278;16.378;2024-03-22T07:38:00;22.08;;;19.98;;
63217;SDS011;49314;48.278;16.378;2024-03-22T07:40:26;20.30;;;18.20;;
63217;SDS011;49314;48.278;16.378;2024-03-22T07:42:51;27.83;;;23.73;;
63217;SDS011;49314;48.278;16.378;2024-03-22T07:45:16;29.90;;;26.75;;
63217;SDS011;49314;48.278;16.378;2024-03-22T07:47:41;28.05;;;22.75;;
63217;SDS011;49314;48.278;16.378;2024-03-22T07:50:08;22.42;;;19.80;;
63217;SDS011;49314;48.278;16.378;2024-03-22T07:52:34;20.52;;;18.48;;
63217;SDS011;49314;48.278;16.378;2024-03-22T07:54:59;22.10;;;20.00;;
63217;SDS011;49314;48.278;16.378;2024-03-22T07:57:27;23.00;;;20.52;;
63217;SDS011;49314;48.278;16.378;2024-03-22T07:59:52;23.88;;;20.33;;
63217;SDS011;49314;48.278;16.378;2024-03-22T08:02:17;22.50;;;20.05;;
63217;SDS011;49314;48.278;16.378;2024-03-22T08:04:42;22.95;;;20.70;;
63217;SDS011;49314;48.278;16.378;2024-03-22T08:07:08;22.65;;;20.25;;
63217;SDS011;49314;48.278;16.378;2024-03-22T08:09:33;20.17;;;18.00;;
63217;SDS011;49314;48.278;16.378;2024-03-22T08:11:58;22.13;;;17.00;;
63217;SDS011;49314;48.278;16.378;2024-03-22T08:14:24;23.50;;;20.98;;
63217;SDS011;49314;48.278;16.378;2024-03-22T08:16:49;20.92;;;18.83;;
63217;SDS011;49314;48.278;16.378;2024-03-22T08:19:14;21.38;;;19.20;;
63217;SDS011;49314;48.278;16.378;2024-03-22T08:21:39;24.23;;;19.90;;
63217;SDS011;49314;48.278;16.378;2024-03-22T08:24:05;18.85;;;16.85;;
63217;SDS011;49314;48.278;16.378;2024-03-22T08:26:30;21.75;;;19.48;;
63217;SDS011;49314;48.278;16.378;2024-03-22T08:28:55;21.70;;;19.35;;
63217;SDS011;49314;48.278;16.378;2024-03-22T08:31:20;21.85;;;19.20;;
63217;SDS011;49314;48.278;16.378;2024-03-22T08:33:50;21.27;;;19.05;;
63217;SDS011;49314;48.278;16.378;2024-03-22T08:36:15;20.13;;;18.13;;
63217;SDS011;49314;48.278;16.378;2024-03-22T08:38:41;21.93;;;19.83;;
63217;SDS011;49314;48.278;16.378;2024-03-22T08:41:06;21.02;;;18.75;;
63217;SDS011;49314;48.278;16.378;2024-03-22T08:43:31;21.73;;;16.92;;
63217;SDS011;49314;48.278;16.378;2024-03-22T08:45:56;23.52;;;21.05;;
63217;SDS011;49314;48.278;16.378;2024-03-22T08:48:22;20.85;;;18.27;;
63217;SDS011;49314;48.278;16.378;2024-03-22T08:50:48;31.92;;;25.75;;
63217;SDS011;49314;48.278;16.378;2024-03-22T08:53:13;21.20;;;18.95;;
63217;SDS011;49314;48.278;16.378;2024-03-22T08:55:38;20.90;;;18.27;;
63217;SDS011;49314;48.278;16.378;2024-03-22T08:58:09;19.05;;;17.13;;
63217;SDS011;49314;48.278;16.378;2024-03-22T09:00:34;23.58;;;21.10;;
63217;SDS011;49314;48.278;16.378;2024-03-22T09:03:00;21.17;;;19.23;;
63217;SDS011;49314;48.278;16.378;2024-03-22T09:05:25;21.02;;;18.92;;
63217;SDS011;49314;48.278;16.378;2024-03-22T09:07:50;21.30;;;19.20;;
63217;SDS011;49314;48.278;16.378;2024-03-22T09:10:18;21.27;;;19.17;;
63217;SDS011;49314;48.278;16.378;2024-03-22T09:12:43;19.83;;;17.58;;
63217;SDS011;49314;48.278;16.378;2024-03-22T09:15:08;20.52;;;18.52;;
63217;SDS011;49314;48.278;16.378;2024-03-22T09:17:33;22.48;;;19.65;;
63217;SDS011;49314;48.278;16.378;2024-03-22T09:19:59;21.73;;;19.67;;
63217;SDS011;49314;48.278;16.378;2024-03-22T09:22:24;20.47;;;18.40;;
63217;SDS011;49314;48.278;16.378;2024-03-22T09:24:49;21.13;;;18.92;;
63217;SDS011;49314;48.278;16.378;2024-03-22T09:27:15;20.38;;;17.70;;
63217;SDS011;49314;48.278;16.378;2024-03-22T09:29:40;33.93;;;23.97;;
63217;SDS011;49314;48.278;16.378;2024-03-22T09:32:05;20.63;;;18.50;;
63217;SDS011;49314;48.278;16.378;2024-03-22T09:34:30;17.50;;;15.60;;
63217;SDS011;49314;48.278;16.378;2024-03-22T09:36:56;21.05;;;18.85;;
63217;SDS011;49314;48.278;16.378;2024-03-22T09:39:22;23.90;;;19.27;;
63217;SDS011;49314;48.278;16.378;2024-03-22T09:41:47;19.30;;;17.27;;
63217;SDS011;49314;48.278;16.378;2024-03-22T09:44:14;20.65;;;17.98;;
63217;SDS011;49314;48.278;16.378;2024-03-22T09:46:40;18.13;;;16.35;;
63217;SDS011;49314;48.278;16.378;2024-03-22T09:49:06;17.23;;;15.65;;
63217;SDS011;49314;48.278;16.378;2024-03-22T09:51:32;16.40;;;14.73;;
63217;SDS011;49314;48.278;16.378;2024-03-22T09:53:58;16.58;;;14.88;;
63217;SDS011;49314;48.278;16.378;2024-03-22T09:56:24;16.48;;;14.98;;
63217;SDS011;49314;48.278;16.378;2024-03-22T09:58:50;19.05;;;17.10;;
63217;SDS011;49314;48.278;16.378;2024-03-22T10:01:15;15.30;;;13.70;;
63217;SDS011;49314;48.278;16.378;2024-03-22T10:03:41;13.88;;;12.57;;
63217;SDS011;49314;48.278;16.378;2024-03-22T10:06:06;15.95;;;12.80;;
63217;SDS011;49314;48.278;16.378;2024-03-22T10:08:32;16.13;;;13.43;;
63217;SDS011;49314;48.278;16.378;2024-03-22T10:10:57;14.95;;;13.52;;
63217;SDS011;49314;48.278;16.378;2024-03-22T10:13:22;15.85;;;13.57;;
63217;SDS011;49314;48.278;16.378;2024-03-22T10:15:48;13.83;;;12.57;;
63217;SDS011;49314;48.278;16.378;2024-03-22T10:18:14;13.15;;;11.80;;
63217;SDS011;49314;48.278;16.378;2024-03-22T10:20:40;12.73;;;11.52;;
63217;SDS011;49314;48.278;16.378;2024-03-22T10:23:05;12.80;;;11.38;;
63217;SDS011;49314;48.278;16.378;2024-03-22T10:25:32;13.20;;;11.93;;
63217;SDS011;49314;48.278;16.378;2024-03-22T10:27:58;14.05;;;11.80;;
63217;SDS011;49314;48.278;16.378;2024-03-22T10:30:24;12.52;;;10.95;;
63217;SDS011;49314;48.278;16.378;2024-03-22T10:32:50;13.30;;;12.05;;
63217;SDS011;49314;48.278;16.378;2024-03-22T10:35:15;13.80;;;12.50;;
63217;SDS011;49314;48.278;16.378;2024-03-22T10:37:41;12.25;;;11.00;;
63217;SDS011;49314;48.278;16.378;2024-03-22T10:40:07;13.32;;;11.93;;
63217;SDS011;49314;48.278;16.378;2024-03-22T10:42:36;13.90;;;12.18;;
63217;SDS011;49314;48.278;16.378;2024-03-22T10:45:02;12.88;;;11.68;;
63217;SDS011;49314;48.278;16.378;2024-03-22T10:47:29;13.80;;;12.05;;
63217;SDS011;49314;48.278;16.378;2024-03-22T10:49:55;13.07;;;11.77;;
63217;SDS011;49314;48.278;16.378;2024-03-22T10:52:22;13.05;;;11.77;;
63217;SDS011;49314;48.278;16.378;2024-03-22T10:54:48;13.35;;;12.13;;
63217;SDS011;49314;48.278;16.378;2024-03-22T10:57:14;13.80;;;12.18;;
63217;SDS011;49314;48.278;16.378;2024-03-22T10:59:43;10.30;;;9.25;;
63217;SDS011;49314;48.278;16.378;2024-03-22T11:02:11;21.40;;;16.10;;
63217;SDS011;49314;48.278;16.378;2024-03-22T11:04:36;13.00;;;11.57;;
63217;SDS011;49314;48.278;16.378;2024-03-22T11:07:01;16.40;;;13.60;;
63217;SDS011;49314;48.278;16.378;2024-03-22T11:09:28;17.08;;;15.25;;
63217;SDS011;49314;48.278;16.378;2024-03-22T11:11:55;13.13;;;11.95;;
63217;SDS011;49314;48.278;16.378;2024-03-22T11:14:21;13.00;;;11.80;;
63217;SDS011;49314;48.278;16.378;2024-03-22T11:16:48;12.35;;;11.20;;
63217;SDS011;49314;48.278;16.378;2024-03-22T11:19:13;12.87;;;11.67;;
63217;SDS011;49314;48.278;16.378;2024-03-22T11:21:39;14.07;;;12.65;;
63217;SDS011;49314;48.278;16.378;2024-03-22T11:24:05;13.82;;;11.93;;
63217;SDS011;49314;48.278;16.378;2024-03-22T11:26:31;13.32;;;11.48;;
63217;SDS011;49314;48.278;16.378;2024-03-22T11:28:56;13.55;;;12.20;;
63217;SDS011;49314;48.278;16.378;2024-03-22T11:31:22;13.77;;;10.77;;
63217;SDS011;49314;48.278;16.378;2024-03-22T11:33:52;13.00;;;10.85;;
63217;SDS011;49314;48.278;16.378;2024-03-22T11:36:17;12.75;;;11.55;;
63217;SDS011;49314;48.278;16.378;2024-03-22T11:38:43;12.02;;;10.82;;
63217;SDS011;49314;48.278;16.378;2024-03-22T11:41:08;13.53;;;11.77;;
63217;SDS011;49314;48.278;16.378;2024-03-22T11:43:34;13.27;;;9.80;;
63217;SDS011;49314;48.278;16.378;2024-03-22T11:45:59;11.10;;;10.00;;
63217;SDS011;49314;48.278;16.378;2024-03-22T11:48:26;11.70;;;10.50;;
63217;SDS011;49314;48.278;16.378;2024-03-22T11:50:52;10.70;;;9.70;;
63217;SDS011;49314;48.278;16.378;2024-03-22T11:53:17;9.70;;;8.73;;
63217;SDS011;49314;48.278;16.378;2024-03-22T11:55:42;11.73;;;10.53;;
63217;SDS011;49314;48.278;16.378;2024-03-22T11:58:10;8.88;;;7.95;;
63217;SDS011;49314;48.278;16.378;2024-03-22T12:00:36;9.85;;;8.70;;
63217;SDS011;49314;48.278;16.378;2024-03-22T12:03:03;9.35;;;8.45;;
63217;SDS011;49314;48.278;16.378;2024-03-22T12:05:29;8.75;;;7.95;;
63217;SDS011;49314;48.278;16.378;2024-03-22T12:07:54;9.80;;;8.93;;
63217;SDS011;49314;48.278;16.378;2024-03-22T12:10:20;8.95;;;8.07;;
63217;SDS011;49314;48.278;16.378;2024-03-22T12:12:46;9.27;;;8.47;;
63217;SDS011;49314;48.278;16.378;2024-03-22T12:15:11;9.57;;;8.57;;
63217;SDS011;49314;48.278;16.378;2024-03-22T12:17:36;8.67;;;7.20;;
63217;SDS011;49314;48.278;16.378;2024-03-22T12:20:02;9.88;;;8.85;;
63217;SDS011;49314;48.278;16.378;2024-03-22T12:22:29;10.35;;;9.25;;
63217;SDS011;49314;48.278;16.378;2024-03-22T12:24:54;9.70;;;8.30;;
63217;SDS011;49314;48.278;16.378;2024-03-22T12:27:19;9.00;;;8.10;;
63217;SDS011;49314;48.278;16.378;2024-03-22T12:29:44;8.07;;;7.27;;
63217;SDS011;49314;48.278;16.378;2024-03-22T12:32:10;8.45;;;7.70;;
63217;SDS011;49314;48.278;16.378;2024-03-22T12:34:35;9.97;;;8.37;;
63217;SDS011;49314;48.278;16.378;2024-03-22T12:37:01;8.80;;;7.90;;
63217;SDS011;49314;48.278;16.378;2024-03-22T12:39:27;8.35;;;7.55;;
63217;SDS011;49314;48.278;16.378;2024-03-22T12:41:52;10.27;;;7.80;;
63217;SDS011;49314;48.278;16.378;2024-03-22T12:44:18;8.15;;;7.32;;
63217;SDS011;49314;48.278;16.378;2024-03-22T12:46:44;9.27;;;8.40;;
63217;SDS011;49314;48.278;16.378;2024-03-22T12:49:10;8.18;;;7.38;;
63217;SDS011;49314;48.278;16.378;2024-03-22T12:51:35;8.75;;;7.90;;
63217;SDS011;49314;48.278;16.378;2024-03-22T12:54:01;8.80;;;8.10;;
63217;SDS011;49314;48.278;16.378;2024-03-22T12:56:26;9.45;;;7.68;;
63217;SDS011;49314;48.278;16.378;2024-03-22T12:58:52;7.43;;;5.70;;
63217;SDS011;49314;48.278;16.378;2024-03-22T13:01:17;9.17;;;7.63;;
63217;SDS011;49314;48.278;16.378;2024-03-22T13:03:42;8.98;;;7.85;;
63217;SDS011;49314;48.278;16.378;2024-03-22T13:06:07;8.57;;;7.53;;
63217;SDS011;49314;48.278;16.378;2024-03-22T13:08:32;9.43;;;7.80;;
63217;SDS011;49314;48.278;16.378;2024-03-22T13:10:58;14.37;;;12.37;;
63217;SDS011;49314;48.278;16.378;2024-03-22T13:13:23;17.75;;;13.80;;
63217;SDS011;49314;48.278;16.378;2024-03-22T13:15:48;7.70;;;7.00;;
63217;SDS011;49314;48.278;16.378;2024-03-22T13:18:14;41.27;;;32.00;;
63217;SDS011;49314;48.278;16.378;2024-03-22T13:20:39;8.57;;;7.70;;
63217;SDS011;49314;48.278;16.378;2024-03-22T13:23:05;10.30;;;7.80;;
63217;SDS011;49314;48.278;16.378;2024-03-22T13:25:30;7.82;;;7.05;;
63217;SDS011;49314;48.278;16.378;2024-03-22T13:27:55;8.75;;;7.20;;
63217;SDS011;49314;48.278;16.378;2024-03-22T13:30:21;6.40;;;5.70;;
63217;SDS011;49314;48.278;16.378;2024-03-22T13:32:46;8.90;;;7.43;;
63217;SDS011;49314;48.278;16.378;2024-03-22T13:35:12;14.20;;;10.32;;
63217;SDS011;49314;48.278;16.378;2024-03-22T13:37:37;7.60;;;6.90;;
63217;SDS011;49314;48.278;16.378;2024-03-22T13:40:02;18.40;;;11.68;;
63217;SDS011;49314;48.278;16.378;2024-03-22T13:42:28;11.63;;;9.00;;
63217;SDS011;49314;48.278;16.378;2024-03-22T13:44:53;10.05;;;8.05;;
63217;SDS011;49314;48.278;16.378;2024-03-22T13:47:18;7.50;;;6.57;;
63217;SDS011;49314;48.278;16.378;2024-03-22T13:49:45;7.03;;;6.30;;
63217;SDS011;49314;48.278;16.378;2024-03-22T13:52:10;6.90;;;6.30;;
63217;SDS011;49314;48.278;16.378;2024-03-22T13:54:36;6.18;;;5.57;;
63217;SDS011;49314;48.278;16.378;2024-03-22T13:57:01;6.50;;;5.82;;
63217;SDS011;49314;48.278;16.378;2024-03-22T13:59:27;5.75;;;5.25;;
63217;SDS011;49314;48.278;16.378;2024-03-22T14:01:52;7.13;;;5.20;;
63217;SDS011;49314;48.278;16.378;2024-03-22T14:04:18;7.07;;;6.17;;
63217;SDS011;49314;48.278;16.378;2024-03-22T14:06:44;7.47;;;6.72;;